createdAt,value
2017-06-26T00:01:04.204Z,21.70
2017-06-26T00:03:31.685Z,21.60
2017-06-26T00:05:59.201Z,21.50
2017-06-26T00:08:26.685Z,21.50
2017-06-26T00:10:54.215Z,21.50
2017-06-26T00:13:21.700Z,21.50
2017-06-26T00:15:49.215Z,21.50
2017-06-26T00:18:16.708Z,21.50
2017-06-26T00:20:44.983Z,21.50
2017-06-26T00:23:12.476Z,21.40
2017-06-26T00:25:39.979Z,21.40
2017-06-26T00:28:07.467Z,21.30
2017-06-26T00:30:34.979Z,21.30
2017-06-26T00:33:02.452Z,21.30
2017-06-26T00:35:29.968Z,21.30
2017-06-26T00:37:57.448Z,21.30
2017-06-26T00:40:25.700Z,21.40
2017-06-26T00:42:53.217Z,21.30
2017-06-26T00:45:20.704Z,21.40
2017-06-26T00:47:48.212Z,21.30
2017-06-26T00:50:15.688Z,21.40
2017-06-26T00:52:43.963Z,21.30
2017-06-26T00:55:12.227Z,21.40
2017-06-26T00:57:40.508Z,21.40
2017-06-26T01:00:07.993Z,21.40
2017-06-26T01:02:35.495Z,21.20
2017-06-26T01:05:02.978Z,21.30
2017-06-26T01:07:30.476Z,21.30
2017-06-26T01:09:57.961Z,21.40
2017-06-26T01:12:25.459Z,21.40
2017-06-26T01:14:52.943Z,21.40
2017-06-26T01:17:20.452Z,21.20
2017-06-26T01:19:47.940Z,21.20
2017-06-26T01:22:15.447Z,21.20
2017-06-26T01:24:42.927Z,21.20
2017-06-26T01:27:10.450Z,21.20
2017-06-26T01:29:37.952Z,21.20
2017-06-26T01:32:05.431Z,21.20
2017-06-26T01:34:32.934Z,21.10
2017-06-26T01:37:00.413Z,21.20
2017-06-26T01:39:27.915Z,21.30
2017-06-26T01:41:56.172Z,21.20
2017-06-26T01:44:24.440Z,21.30
2017-06-26T01:46:52.692Z,21.30
2017-06-26T01:49:20.192Z,21.20
2017-06-26T01:51:47.679Z,21.20
2017-06-26T01:54:15.943Z,21.20
2017-06-26T01:56:44.199Z,21.20
2017-06-26T01:59:15.393Z,21.20
2017-06-26T02:01:42.875Z,21.10
2017-06-26T02:04:10.372Z,21.20
2017-06-26T02:06:37.864Z,21.20
2017-06-26T02:09:05.372Z,21.20
2017-06-26T02:11:32.856Z,21.20
2017-06-26T02:14:00.359Z,21.20
2017-06-26T02:16:27.843Z,21.30
2017-06-26T02:18:55.344Z,21.20
2017-06-26T02:21:22.861Z,21.10
2017-06-26T02:23:50.355Z,20.90
2017-06-26T02:26:18.623Z,21.00
2017-06-26T02:28:46.880Z,21.00
2017-06-26T02:31:14.392Z,20.90
2017-06-26T02:33:41.883Z,21.00
2017-06-26T02:36:09.393Z,21.00
2017-06-26T02:38:37.646Z,20.80
2017-06-26T02:41:05.152Z,20.80
2017-06-26T02:43:32.631Z,20.90
2017-06-26T02:46:00.913Z,21.00
2017-06-26T02:48:28.403Z,21.00
2017-06-26T02:50:55.919Z,21.00
2017-06-26T02:53:23.416Z,21.10
2017-06-26T02:55:50.915Z,21.10
2017-06-26T02:58:18.403Z,21.00
2017-06-26T03:00:45.912Z,21.00
2017-06-26T03:03:13.389Z,21.00
2017-06-26T03:05:40.895Z,21.00
2017-06-26T03:08:08.381Z,20.90
2017-06-26T03:10:35.879Z,20.90
2017-06-26T03:13:03.358Z,20.90
2017-06-26T03:15:30.875Z,20.90
2017-06-26T03:17:58.364Z,20.90
2017-06-26T03:20:25.844Z,20.90
2017-06-26T03:22:53.356Z,20.70
2017-06-26T03:25:20.842Z,20.60
2017-06-26T03:27:48.352Z,20.60
2017-06-26T03:30:16.601Z,20.70
2017-06-26T03:32:44.101Z,20.60
2017-06-26T03:35:11.579Z,20.60
2017-06-26T03:37:39.086Z,20.70
2017-06-26T03:40:06.564Z,20.60
2017-06-26T03:42:34.073Z,20.60
2017-06-26T03:45:01.564Z,20.60
2017-06-26T03:47:29.834Z,20.60
2017-06-26T03:49:58.084Z,20.60
2017-06-26T03:52:26.360Z,20.60
2017-06-26T03:54:53.843Z,20.60
2017-06-26T03:57:21.356Z,20.60
2017-06-26T03:59:48.836Z,20.60
2017-06-26T04:02:16.345Z,20.70
2017-06-26T04:04:44.600Z,20.70
2017-06-26T04:07:12.698Z,20.70
2017-06-26T04:09:40.176Z,20.70
2017-06-26T04:12:07.682Z,20.80
2017-06-26T04:14:35.167Z,20.70
2017-06-26T04:17:02.660Z,20.60
2017-06-26T04:19:30.168Z,20.70
2017-06-26T04:21:57.655Z,20.80
2017-06-26T04:24:25.161Z,20.70
2017-06-26T04:26:52.644Z,20.70
2017-06-26T04:29:20.154Z,20.70
2017-06-26T04:31:47.627Z,20.70
2017-06-26T04:34:15.132Z,20.80
2017-06-26T04:36:43.381Z,20.80
2017-06-26T04:39:10.884Z,20.80
2017-06-26T04:41:38.363Z,20.90
2017-06-26T04:44:05.861Z,21.00
2017-06-26T04:46:33.340Z,20.90
2017-06-26T04:49:00.840Z,21.00
2017-06-26T04:51:28.321Z,21.10
2017-06-26T04:53:55.824Z,21.10
2017-06-26T04:56:23.307Z,21.10
2017-06-26T04:58:50.816Z,21.10
2017-06-26T05:01:18.292Z,21.10
2017-06-26T05:03:45.797Z,21.20
2017-06-26T05:06:13.284Z,21.20
2017-06-26T05:08:40.788Z,21.30
2017-06-26T05:11:08.300Z,21.40
2017-06-26T05:13:35.804Z,21.50
2017-06-26T05:16:03.316Z,21.40
2017-06-26T05:18:30.805Z,21.50
2017-06-26T05:20:58.308Z,21.50
2017-06-26T05:23:25.814Z,21.50
2017-06-26T05:25:53.312Z,21.50
2017-06-26T05:28:20.804Z,21.40
2017-06-26T05:30:48.333Z,21.40
2017-06-26T05:33:15.820Z,21.40
2017-06-26T05:35:43.319Z,21.40
2017-06-26T05:38:10.812Z,21.50
2017-06-26T05:40:38.312Z,21.40
2017-06-26T05:43:05.797Z,21.40
2017-06-26T05:45:33.324Z,21.50
2017-06-26T05:48:00.828Z,21.50
2017-06-26T05:50:28.332Z,21.50
2017-06-26T05:52:55.823Z,21.50
2017-06-26T05:55:23.329Z,21.50
2017-06-26T05:57:50.804Z,21.50
2017-06-26T06:00:18.295Z,21.50
2017-06-26T06:02:45.773Z,21.50
2017-06-26T06:05:13.291Z,21.50
2017-06-26T06:07:40.772Z,21.60
2017-06-26T06:10:08.252Z,21.70
2017-06-26T06:12:36.523Z,21.80
2017-06-26T06:15:04.769Z,21.90
2017-06-26T06:17:33.044Z,21.90
2017-06-26T06:20:01.289Z,22.00
2017-06-26T06:22:29.558Z,22.00
2017-06-26T06:24:57.815Z,21.90
2017-06-26T06:27:25.324Z,21.80
2017-06-26T06:29:52.804Z,21.80
2017-06-26T06:32:21.081Z,21.80
2017-06-26T06:34:48.656Z,21.80
2017-06-26T06:37:16.164Z,21.80
2017-06-26T06:39:43.647Z,21.90
2017-06-26T06:42:11.144Z,22.00
2017-06-26T06:44:39.422Z,22.10
2017-06-26T06:47:06.923Z,22.10
2017-06-26T06:49:34.407Z,22.30
2017-06-26T06:52:01.913Z,22.40
2017-06-26T06:54:30.156Z,22.40
2017-06-26T06:56:57.672Z,22.30
2017-06-26T06:59:25.167Z,22.40
2017-06-26T07:01:53.428Z,22.40
2017-06-26T07:04:20.959Z,22.30
2017-06-26T07:06:48.441Z,22.40
2017-06-26T07:09:15.956Z,22.50
2017-06-26T07:11:44.204Z,22.70
2017-06-26T07:14:11.714Z,22.60
2017-06-26T07:16:39.200Z,22.70
2017-06-26T07:19:06.704Z,22.80
2017-06-26T07:21:34.195Z,22.80
2017-06-26T07:24:01.709Z,22.80
2017-06-26T07:26:29.192Z,22.90
2017-06-26T07:28:56.692Z,23.00
2017-06-26T07:31:24.200Z,23.10
2017-06-26T07:33:51.713Z,23.10
2017-06-26T07:36:19.205Z,22.80
2017-06-26T07:38:46.703Z,23.00
2017-06-26T07:41:14.203Z,23.20
2017-06-26T07:43:41.700Z,23.20
2017-06-26T07:46:09.181Z,23.30
2017-06-26T07:48:36.683Z,23.50
2017-06-26T07:51:04.167Z,23.60
2017-06-26T07:53:31.652Z,23.80
2017-06-26T07:55:59.152Z,23.90
2017-06-26T07:58:26.635Z,24.20
2017-06-26T08:00:54.164Z,24.30
2017-06-26T08:03:21.650Z,24.40
2017-06-26T08:05:49.152Z,24.60
2017-06-26T08:08:16.635Z,24.70
2017-06-26T08:10:44.136Z,24.80
2017-06-26T08:13:11.622Z,24.90
2017-06-26T08:15:39.128Z,25.00
2017-06-26T08:18:06.607Z,24.90
2017-06-26T08:20:34.115Z,25.20
2017-06-26T08:23:01.600Z,25.40
2017-06-26T08:25:29.102Z,25.50
2017-06-26T08:27:56.581Z,25.60
2017-06-26T08:30:24.080Z,25.70
2017-06-26T08:32:51.574Z,25.80
2017-06-26T08:35:19.076Z,26.20
2017-06-26T08:37:46.571Z,26.70
2017-06-26T08:40:14.089Z,26.70
2017-06-26T08:42:41.574Z,26.60
2017-06-26T08:45:09.057Z,27.00
2017-06-26T08:47:36.559Z,27.70
2017-06-26T08:50:04.041Z,27.90
2017-06-26T08:52:31.544Z,28.70
2017-06-26T08:54:59.031Z,29.70
2017-06-26T08:57:26.538Z,30.70
2017-06-26T08:59:54.016Z,30.60
2017-06-26T09:02:21.518Z,30.10
2017-06-26T09:04:49.045Z,30.50
2017-06-26T09:07:16.561Z,30.70
2017-06-26T09:09:44.079Z,30.90
2017-06-26T09:12:11.596Z,31.70
2017-06-26T09:14:39.076Z,31.90
2017-06-26T09:17:06.588Z,32.10
2017-06-26T09:19:34.078Z,32.40
2017-06-26T09:22:01.586Z,32.10
2017-06-26T09:24:29.072Z,32.00
2017-06-26T09:26:56.580Z,32.90
2017-06-26T09:29:24.225Z,32.80
2017-06-26T09:31:51.808Z,33.30
2017-06-26T09:34:19.301Z,33.90
2017-06-26T09:36:46.869Z,34.00
2017-06-26T09:39:14.396Z,35.00
2017-06-26T09:41:42.037Z,35.80
2017-06-26T09:44:09.540Z,35.40
2017-06-26T09:46:37.072Z,34.70
2017-06-26T09:49:05.349Z,34.30
2017-06-26T09:51:33.612Z,34.90
2017-06-26T09:54:02.704Z,35.50
2017-06-26T09:56:30.188Z,35.40
2017-06-26T09:58:57.696Z,34.80
2017-06-26T10:01:25.947Z,33.10
2017-06-26T10:03:53.480Z,33.00
2017-06-26T10:06:20.969Z,32.70
2017-06-26T10:08:48.480Z,33.10
2017-06-26T10:11:15.964Z,33.10
2017-06-26T10:13:43.479Z,32.70
2017-06-26T10:16:11.001Z,32.90
2017-06-26T10:18:38.524Z,32.70
2017-06-26T10:21:06.015Z,32.40
2017-06-26T10:23:33.524Z,33.00
2017-06-26T10:26:01.011Z,34.10
2017-06-26T10:28:28.540Z,35.10
2017-06-26T10:30:56.031Z,36.20
2017-06-26T10:33:23.539Z,37.00
2017-06-26T10:35:51.054Z,37.80
2017-06-26T10:38:18.673Z,38.40
2017-06-26T10:40:46.300Z,38.70
2017-06-26T10:43:14.019Z,38.50
2017-06-26T10:45:41.560Z,38.60
2017-06-26T10:48:09.281Z,38.90
2017-06-26T10:50:37.557Z,37.90
2017-06-26T10:53:05.061Z,37.90
2017-06-26T10:55:32.601Z,36.90
2017-06-26T10:58:00.107Z,36.30
2017-06-26T11:00:27.633Z,35.70
2017-06-26T11:02:55.927Z,34.60
2017-06-26T11:08:21.390Z,34.90
2017-06-26T11:10:50.925Z,34.80
2017-06-26T11:13:18.437Z,34.30
2017-06-26T11:15:45.969Z,33.70
2017-06-26T11:18:15.700Z,32.50
2017-06-26T11:20:43.232Z,32.40
2017-06-26T11:23:10.808Z,32.10
2017-06-26T11:25:38.344Z,31.70
2017-06-26T11:28:12.267Z,31.20
2017-06-26T11:31:06.787Z,30.10
2017-06-26T11:33:34.349Z,30.10
2017-06-26T11:36:09.235Z,30.00
2017-06-26T11:41:38.588Z,29.70
2017-06-26T11:44:08.068Z,29.70
2017-06-26T11:46:36.499Z,29.60
2017-06-26T11:49:04.072Z,29.40
2017-06-26T11:51:31.584Z,29.20
2017-06-26T11:53:59.196Z,29.20
2017-06-26T11:56:36.128Z,29.10
2017-06-26T11:59:03.624Z,28.90
2017-06-26T12:01:31.288Z,28.70
2017-06-26T12:06:35.679Z,27.70
2017-06-26T12:09:09.217Z,27.90
2017-06-26T12:11:36.744Z,27.90
2017-06-26T12:14:04.260Z,27.90
2017-06-26T12:16:31.816Z,28.00
2017-06-26T12:19:02.196Z,28.00
2017-06-26T12:21:29.700Z,28.00
2017-06-26T12:24:03.330Z,27.90
2017-06-26T12:26:30.867Z,28.00
2017-06-26T12:28:58.455Z,28.00
2017-06-26T12:31:27.848Z,28.00
2017-06-26T12:33:59.577Z,28.00
2017-06-26T12:36:40.780Z,28.00
2017-06-26T12:39:08.494Z,28.00
2017-06-26T12:41:40.201Z,27.90
2017-06-26T12:44:32.986Z,27.90
2017-06-26T12:50:00.932Z,27.80
2017-06-26T12:52:30.535Z,27.80
2017-06-26T12:54:58.146Z,27.80
2017-06-26T12:57:25.664Z,27.80
2017-06-26T12:59:53.285Z,27.90
2017-06-26T13:02:20.840Z,27.90
2017-06-26T13:04:48.472Z,27.90
2017-06-26T13:07:16.000Z,27.90
2017-06-26T13:09:43.559Z,27.90
2017-06-26T13:12:11.135Z,27.90
2017-06-26T13:14:38.912Z,27.90
2017-06-26T13:17:06.573Z,27.90
2017-06-26T13:19:34.922Z,27.90
2017-06-26T13:22:02.451Z,27.80
2017-06-26T13:24:29.991Z,27.80
2017-06-26T13:26:57.482Z,27.80
2017-06-26T13:29:25.016Z,27.80
2017-06-26T13:31:52.515Z,27.70
2017-06-26T13:34:20.016Z,27.70
2017-06-26T13:36:47.891Z,27.60
2017-06-26T13:39:15.567Z,27.60
2017-06-26T13:41:43.135Z,27.60
2017-06-26T13:44:10.677Z,27.60
2017-06-26T13:46:38.477Z,27.50
2017-06-26T13:49:05.968Z,27.60
2017-06-26T13:51:33.504Z,27.70
2017-06-26T13:54:01.003Z,27.80
2017-06-26T13:56:28.540Z,27.90
2017-06-26T13:58:56.036Z,28.00
2017-06-26T14:01:23.564Z,28.00
2017-06-26T14:03:51.052Z,28.00
2017-06-26T14:06:18.597Z,27.90
2017-06-26T14:08:46.100Z,27.90
2017-06-26T14:11:13.684Z,27.90
2017-06-26T14:13:41.191Z,27.80
2017-06-26T14:16:08.717Z,27.80
2017-06-26T14:18:36.213Z,27.70
2017-06-26T14:21:04.499Z,27.70
2017-06-26T14:23:32.004Z,27.70
2017-06-26T14:26:00.292Z,27.50
2017-06-26T14:28:27.787Z,27.40
2017-06-26T14:30:55.309Z,27.40
2017-06-26T14:33:22.825Z,27.40
2017-06-26T14:35:50.419Z,27.40
2017-06-26T14:38:17.928Z,27.50
2017-06-26T14:40:45.462Z,27.50
2017-06-26T14:43:12.959Z,27.60
2017-06-26T14:45:43.665Z,27.50
2017-06-26T14:48:11.173Z,27.50
2017-06-26T14:50:38.680Z,27.50
2017-06-26T14:53:06.209Z,27.50
2017-06-26T14:55:34.504Z,27.50
2017-06-26T14:58:02.024Z,27.40
2017-06-26T15:00:29.532Z,27.50
2017-06-26T15:03:04.532Z,27.50
2017-06-26T15:05:40.440Z,27.50
2017-06-26T15:08:16.024Z,27.40
2017-06-26T15:10:44.718Z,27.40
2017-06-26T15:13:12.795Z,27.40
2017-06-26T15:15:40.502Z,27.40
2017-06-26T15:18:08.779Z,27.40
2017-06-26T15:20:36.286Z,27.30
2017-06-26T15:23:04.171Z,27.40
2017-06-26T15:25:36.015Z,27.40
2017-06-26T15:28:04.405Z,27.30
2017-06-26T15:30:39.888Z,27.30
2017-06-26T15:33:08.302Z,27.40
2017-06-26T15:35:35.857Z,27.40
2017-06-26T15:38:03.445Z,27.30
2017-06-26T15:40:30.939Z,27.30
2017-06-26T15:42:58.578Z,27.30
2017-06-26T15:45:35.749Z,27.30
2017-06-26T15:50:40.580Z,27.20
2017-06-26T15:55:51.725Z,27.20
2017-06-26T15:58:19.240Z,27.20
2017-06-26T16:00:46.744Z,27.20
2017-06-26T16:03:14.286Z,27.20
2017-06-26T16:05:42.741Z,27.10
2017-06-26T16:08:10.273Z,27.10
2017-06-26T16:10:37.756Z,27.10
2017-06-26T16:13:06.009Z,27.10
2017-06-26T16:15:33.860Z,27.00
2017-06-26T16:18:01.429Z,27.10
2017-06-26T16:20:28.928Z,27.00
2017-06-26T16:22:56.437Z,27.00
2017-06-26T16:25:23.945Z,27.00
2017-06-26T16:27:51.438Z,27.10
2017-06-26T16:30:18.979Z,27.10
2017-06-26T16:32:46.473Z,27.10
2017-06-26T16:35:13.980Z,27.00
2017-06-26T16:37:41.478Z,27.10
2017-06-26T16:40:08.984Z,27.10
2017-06-26T16:42:36.482Z,27.00
2017-06-26T16:45:03.996Z,27.00
2017-06-26T16:47:31.482Z,27.00
2017-06-26T16:49:59.088Z,27.00
2017-06-26T16:52:26.575Z,26.90
2017-06-26T16:54:54.848Z,26.90
2017-06-26T16:57:22.331Z,26.90
2017-06-26T16:59:49.854Z,26.90
2017-06-26T17:02:17.339Z,26.90
2017-06-26T17:04:44.922Z,26.80
2017-06-26T17:07:12.468Z,26.90
2017-06-26T17:09:39.981Z,26.80
2017-06-26T17:12:08.253Z,26.70
2017-06-26T17:14:35.740Z,26.70
2017-06-26T17:17:03.243Z,26.60
2017-06-26T17:19:30.724Z,26.60
2017-06-26T17:21:58.244Z,26.60
2017-06-26T17:24:25.739Z,26.60
2017-06-26T17:26:53.254Z,26.50
2017-06-26T17:29:20.733Z,26.40
2017-06-26T17:31:48.247Z,26.30
2017-06-26T17:34:15.732Z,26.20
2017-06-26T17:36:43.292Z,26.20
2017-06-26T17:39:10.793Z,26.10
2017-06-26T17:41:38.296Z,26.10
2017-06-26T17:44:05.776Z,26.20
2017-06-26T17:46:33.308Z,26.10
2017-06-26T17:49:00.793Z,26.10
2017-06-26T17:51:28.304Z,26.10
2017-06-26T17:53:55.795Z,26.00
2017-06-26T17:56:23.271Z,25.90
2017-06-26T17:58:50.788Z,25.90
2017-06-26T18:01:18.272Z,25.90
2017-06-26T18:03:45.783Z,25.90
2017-06-26T18:06:13.381Z,25.90
2017-06-26T18:08:40.888Z,25.90
2017-06-26T18:11:08.388Z,25.80
2017-06-26T18:13:35.893Z,25.70
2017-06-26T18:16:03.375Z,25.70
2017-06-26T18:18:30.880Z,25.70
2017-06-26T18:20:58.364Z,25.70
2017-06-26T18:23:25.869Z,25.70
2017-06-26T18:25:53.364Z,25.60
2017-06-26T18:28:20.872Z,25.60
2017-06-26T18:30:49.125Z,25.50
2017-06-26T18:33:17.404Z,25.50
2017-06-26T18:35:44.898Z,25.40
2017-06-26T18:38:12.409Z,25.50
2017-06-26T18:40:39.897Z,25.40
2017-06-26T18:43:07.405Z,25.40
2017-06-26T18:45:34.897Z,25.30
2017-06-26T18:48:02.423Z,25.30
2017-06-26T18:50:29.916Z,25.30
2017-06-26T18:52:57.404Z,25.30
2017-06-26T18:55:24.926Z,25.30
2017-06-26T18:57:52.446Z,25.20
2017-06-26T19:00:19.957Z,25.00
2017-06-26T19:02:47.453Z,25.00
2017-06-26T19:05:14.980Z,24.90
2017-06-26T19:07:42.503Z,24.90
2017-06-26T19:10:10.018Z,24.90
2017-06-26T19:12:37.511Z,24.90
2017-06-26T19:15:05.021Z,24.90
2017-06-26T19:17:32.531Z,24.90
2017-06-26T19:20:00.029Z,24.80
2017-06-26T19:22:27.568Z,24.80
2017-06-26T19:24:55.077Z,24.80
2017-06-26T19:27:23.371Z,24.70
2017-06-26T19:29:50.875Z,24.70
2017-06-26T19:32:18.369Z,24.70
2017-06-26T19:34:45.884Z,24.70
2017-06-26T19:37:14.062Z,24.70
2017-06-26T19:39:41.568Z,24.60
2017-06-26T19:42:09.149Z,24.60
2017-06-26T19:44:36.680Z,24.50
2017-06-26T19:47:04.176Z,24.50
2017-06-26T19:49:31.734Z,24.50
2017-06-26T19:51:59.274Z,24.40
2017-06-26T19:54:26.797Z,24.40
2017-06-26T19:56:54.416Z,24.40
2017-06-26T19:59:21.909Z,24.30
2017-06-26T20:01:49.496Z,24.30
2017-06-26T20:04:17.051Z,24.30
2017-06-26T20:06:44.768Z,24.30
2017-06-26T20:09:12.532Z,24.30
2017-06-26T20:11:40.289Z,24.30
2017-06-26T20:14:07.852Z,24.30
2017-06-26T20:16:35.379Z,24.30
2017-06-26T20:19:02.879Z,24.30
2017-06-26T20:21:31.165Z,24.20
2017-06-26T20:23:58.652Z,24.20
2017-06-26T20:26:26.254Z,24.20
2017-06-26T20:28:53.745Z,24.20
2017-06-26T20:31:21.260Z,24.10
2017-06-26T20:33:48.772Z,24.10
2017-06-26T20:36:16.317Z,24.00
2017-06-26T20:38:43.943Z,24.10
2017-06-26T20:41:11.659Z,24.10
2017-06-26T20:43:39.286Z,24.00
2017-06-26T20:46:06.884Z,24.00
2017-06-26T20:48:34.423Z,24.00
2017-06-26T20:51:01.932Z,23.90
2017-06-26T20:53:29.460Z,23.90
2017-06-26T20:55:57.025Z,23.90
2017-06-26T20:58:24.610Z,23.90
2017-06-26T21:00:52.156Z,23.80
2017-06-26T21:03:19.784Z,23.80
2017-06-26T21:05:48.048Z,23.60
2017-06-26T21:08:15.604Z,23.60
2017-06-26T21:10:43.169Z,23.60
2017-06-26T21:13:10.727Z,23.50
2017-06-26T21:15:38.244Z,23.50
2017-06-26T21:18:05.979Z,23.60
2017-06-26T21:20:33.492Z,23.50
2017-06-26T21:23:01.883Z,23.60
2017-06-26T21:25:29.413Z,23.60
2017-06-26T21:27:57.739Z,23.60
2017-06-26T21:30:25.257Z,23.50
2017-06-26T21:32:53.180Z,23.50
2017-06-26T21:35:20.722Z,23.50
2017-06-26T21:37:49.024Z,23.40
2017-06-26T21:40:16.593Z,23.30
2017-06-26T21:42:44.213Z,23.40
2017-06-26T21:45:11.767Z,23.30
2017-06-26T21:47:39.360Z,23.20
2017-06-26T21:50:06.881Z,23.10
2017-06-26T21:52:34.416Z,23.00
2017-06-26T21:55:02.771Z,23.20
2017-06-26T21:57:30.343Z,23.20
2017-06-26T21:59:58.694Z,23.30
2017-06-26T22:02:26.277Z,23.20
2017-06-26T22:04:53.885Z,23.30
2017-06-26T22:07:21.391Z,23.10
2017-06-26T22:09:48.940Z,23.20
2017-06-26T22:12:16.440Z,23.20
2017-06-26T22:14:43.996Z,23.20
2017-06-26T22:17:11.555Z,23.20
2017-06-26T22:19:39.126Z,23.10
2017-06-26T22:22:06.635Z,23.00
2017-06-26T22:24:34.276Z,23.00
2017-06-26T22:27:01.837Z,23.00
2017-06-26T22:29:29.372Z,23.00
2017-06-26T22:31:56.932Z,23.10
2017-06-26T22:34:24.769Z,23.20
2017-06-26T22:36:52.369Z,23.20
2017-06-26T22:39:19.891Z,23.10
2017-06-26T22:41:47.472Z,23.10
2017-06-26T22:44:15.095Z,22.90
2017-06-26T22:46:42.663Z,22.90
2017-06-26T22:49:10.225Z,22.90
2017-06-26T22:51:37.762Z,22.90
2017-06-26T22:54:05.331Z,22.80
2017-06-26T22:56:32.898Z,22.80
2017-06-26T22:59:00.417Z,22.80
2017-06-26T23:01:27.996Z,22.80
2017-06-26T23:03:57.342Z,22.60
2017-06-26T23:06:25.094Z,22.50
2017-06-26T23:08:53.197Z,22.50
2017-06-26T23:11:21.499Z,22.60
2017-06-26T23:13:49.022Z,22.60
2017-06-26T23:16:16.596Z,22.70
2017-06-26T23:18:44.152Z,22.80
2017-06-26T23:21:11.667Z,22.70
2017-06-26T23:23:39.191Z,22.60
2017-06-26T23:26:06.729Z,22.70
2017-06-26T23:28:35.019Z,22.40
2017-06-26T23:31:02.551Z,22.40
2017-06-26T23:33:30.142Z,22.30
2017-06-26T23:35:57.701Z,22.30
2017-06-26T23:38:25.317Z,22.30
2017-06-26T23:40:52.824Z,22.30
2017-06-26T23:43:20.392Z,22.40
2017-06-26T23:45:49.855Z,22.50
2017-06-26T23:48:17.403Z,22.50
2017-06-26T23:50:44.946Z,22.40
2017-06-26T23:53:12.514Z,22.40
2017-06-26T23:55:40.071Z,22.50
2017-06-26T23:58:07.630Z,22.50
